Time;durP1;ratioP1;P1;durP2;ratioP2;P2;SDS_P1;SDS_P2;PMS_P1;PMS_P2;Temp;Humidity;BMP_temperature;BMP_pressure;BME280_temperature;BME280_humidity;BME280_pressure;Samples;Min_cycle;Max_cycle;Signal;HPM_P1;HPM_P2
2024/01/31 00:01:46;;;;;;;2.60;2.40;;;16.70;59.90;17.80;102483.00;;;;5047736;28;20204;-44
2024/01/31 00:04:12;;;;;;;2.60;2.40;;;16.70;59.90;17.80;102482.00;;;;5049505;28;20664;-43
2024/01/31 00:06:38;;;;;;;2.60;2.40;;;16.70;59.90;17.80;102487.00;;;;5048786;28;20180;-44
2024/01/31 00:09:03;;;;;;;2.70;2.50;;;16.70;59.90;17.80;102481.00;;;;5048643;28;20282;-45
2024/01/31 00:11:29;;;;;;;2.60;2.40;;;16.60;59.90;17.70;102480.00;;;;5049703;28;20189;-45
2024/01/31 00:13:56;;;;;;;2.47;2.27;;;16.60;59.80;17.70;102479.00;;;;5046693;28;20201;-44
2024/01/31 00:16:22;;;;;;;2.67;2.47;;;16.60;59.90;17.70;102479.00;;;;5044237;28;20711;-44
2024/01/31 00:18:49;;;;;;;2.40;2.20;;;16.60;59.90;17.70;102480.00;;;;5046380;28;20209;-44
2024/01/31 00:21:16;;;;;;;2.60;2.40;;;16.60;59.90;17.70;102484.00;;;;5049644;28;20173;-44
2024/01/31 00:23:42;;;;;;;2.63;2.43;;;16.60;59.90;17.70;102484.00;;;;5048343;28;20179;-45
2024/01/31 00:26:07;;;;;;;2.50;2.30;;;16.60;59.90;17.70;102489.00;;;;5048461;28;20186;-45
2024/01/31 00:28:33;;;;;;;2.70;2.50;;;16.60;59.90;17.70;102496.00;;;;5045818;28;20192;-45
2024/01/31 00:30:59;;;;;;;2.60;2.40;;;16.60;60.00;17.70;102508.00;;;;5047082;28;20672;-45
2024/01/31 00:33:25;;;;;;;2.90;2.70;;;16.60;60.00;17.70;102497.00;;;;5049303;28;20200;-45
2024/01/31 00:35:50;;;;;;;2.70;2.50;;;16.60;59.90;17.60;102497.00;;;;5047308;28;20227;-44
2024/01/31 00:38:16;;;;;;;2.67;2.47;;;16.60;60.00;17.60;102499.00;;;;5049197;28;20208;-45
2024/01/31 00:40:42;;;;;;;2.70;2.50;;;16.50;60.00;17.40;102498.00;;;;5047756;28;20188;-44
2024/01/31 00:43:09;;;;;;;3.10;2.83;;;16.50;60.20;17.60;102489.00;;;;5048558;28;20525;-44
2024/01/31 00:45:35;;;;;;;2.90;2.70;;;16.50;60.20;17.60;102499.00;;;;5048231;28;20183;-44
2024/01/31 00:48:01;;;;;;;4.40;2.80;;;16.50;60.10;17.60;102503.00;;;;5046246;28;20738;-44
2024/01/31 00:50:27;;;;;;;2.90;2.70;;;16.50;60.00;17.60;102495.00;;;;5048786;28;20659;-45
2024/01/31 00:52:53;;;;;;;2.90;2.70;;;16.50;60.00;17.60;102493.00;;;;5046957;28;20228;-44
2024/01/31 00:55:19;;;;;;;2.77;2.57;;;16.50;60.00;17.60;102493.00;;;;5046855;28;20528;-45
2024/01/31 00:57:46;;;;;;;2.73;2.53;;;16.50;60.00;17.60;102488.00;;;;5046958;28;20274;-44
2024/01/31 01:00:12;;;;;;;3.10;2.90;;;16.50;60.10;17.50;102492.00;;;;5034706;28;20179;-47
2024/01/31 01:02:41;;;;;;;3.00;2.70;;;16.40;60.00;17.50;102498.00;;;;5047036;28;20174;-44
2024/01/31 01:05:10;;;;;;;3.20;2.80;;;16.50;60.00;17.50;102488.00;;;;5046873;28;20683;-44
2024/01/31 01:07:41;;;;;;;3.10;2.90;;;16.50;60.10;17.50;102497.00;;;;5047355;28;20201;-44
2024/01/31 01:10:13;;;;;;;2.90;2.70;;;16.40;59.90;17.50;102496.00;;;;5047287;28;20178;-44
2024/01/31 01:12:39;;;;;;;3.00;2.80;;;16.40;59.90;17.50;102493.00;;;;5045635;28;20527;-44
2024/01/31 01:15:08;;;;;;;3.00;2.80;;;16.40;59.90;17.50;102497.00;;;;5046719;28;20167;-44
2024/01/31 01:17:35;;;;;;;3.20;2.90;;;16.40;59.90;17.50;102501.00;;;;5047331;28;20197;-44
2024/01/31 01:20:00;;;;;;;3.03;2.83;;;16.40;59.90;17.50;102505.00;;;;5045829;28;20221;-44
2024/01/31 01:22:26;;;;;;;3.50;3.00;;;16.40;60.00;17.50;102496.00;;;;5047474;28;20175;-43
2024/01/31 01:24:52;;;;;;;3.13;2.93;;;16.40;60.00;17.50;102498.00;;;;5045336;28;20177;-45
2024/01/31 01:27:18;;;;;;;3.03;2.80;;;16.40;60.00;17.40;102497.00;;;;5046292;28;20870;-45
2024/01/31 01:29:44;;;;;;;3.00;2.80;;;16.40;60.00;17.40;102420.00;;;;5053391;28;20166;-44
2024/01/31 01:32:10;;;;;;;3.27;3.07;;;16.30;60.00;17.40;102501.00;;;;5048131;28;20227;-44
2024/01/31 01:34:40;;;;;;;3.30;3.10;;;16.40;60.00;17.40;102499.00;;;;5047831;28;20211;-44
2024/01/31 01:37:06;;;;;;;3.43;3.20;;;16.40;60.00;17.40;102509.00;;;;5045925;28;20196;-44
2024/01/31 01:39:31;;;;;;;3.43;3.13;;;16.40;60.00;17.40;102505.00;;;;5048046;28;20180;-44
2024/01/31 01:41:57;;;;;;;3.30;3.00;;;16.30;59.90;17.40;102507.00;;;;5050473;28;20200;-44
2024/01/31 01:44:23;;;;;;;3.43;3.13;;;16.30;59.90;17.40;102498.00;;;;5051177;28;20595;-45
2024/01/31 01:46:48;;;;;;;2.90;2.70;;;16.30;59.90;17.40;102503.00;;;;5045620;28;20561;-44
2024/01/31 01:49:14;;;;;;;3.37;3.07;;;16.30;60.00;17.40;102504.00;;;;5029181;28;20205;-45
2024/01/31 01:51:40;;;;;;;3.10;2.90;;;16.30;60.00;17.40;102499.00;;;;5046103;28;20179;-44
2024/01/31 01:54:07;;;;;;;3.27;3.00;;;16.30;60.10;17.40;102505.00;;;;5044953;28;20214;-44
2024/01/31 01:56:33;;;;;;;3.23;3.00;;;16.20;60.00;17.30;102521.00;;;;5045523;28;20260;-44
2024/01/31 01:58:59;;;;;;;3.50;3.20;;;16.30;60.10;17.30;102507.00;;;;5043784;28;20230;-44
2024/01/31 02:01:26;;;;;;;3.57;3.27;;;16.20;59.90;17.30;102508.00;;;;5045942;28;20208;-45
2024/01/31 02:03:54;;;;;;;3.27;3.03;;;16.30;60.00;17.30;102523.00;;;;5043850;28;20196;-44
2024/01/31 02:06:21;;;;;;;3.67;3.37;;;16.30;60.10;17.30;102504.00;;;;5055522;28;20175;-44
2024/01/31 02:08:47;;;;;;;3.50;3.30;;;16.20;60.80;17.30;102519.00;;;;5027158;28;20242;-44
2024/01/31 02:11:13;;;;;;;3.70;3.40;;;16.20;60.00;17.30;102525.00;;;;5028742;28;20205;-45
2024/01/31 02:13:38;;;;;;;3.70;3.40;;;16.20;59.90;17.30;102521.00;;;;5046628;28;20677;-44
2024/01/31 02:16:04;;;;;;;3.70;3.40;;;16.20;59.90;17.30;102521.00;;;;5048914;28;20171;-45
2024/01/31 02:18:30;;;;;;;3.43;3.13;;;16.20;59.90;17.30;102520.00;;;;5050445;28;20687;-44
2024/01/31 02:20:55;;;;;;;3.67;3.20;;;16.20;60.20;17.30;102523.00;;;;5045351;28;20645;-44
2024/01/31 02:23:24;;;;;;;3.53;3.27;;;16.20;60.70;17.30;102522.00;;;;5046557;28;20179;-43
2024/01/31 02:25:50;;;;;;;3.83;3.53;;;16.20;60.60;17.20;102513.00;;;;5044617;28;20214;-44
2024/01/31 02:28:16;;;;;;;3.70;3.40;;;16.20;60.50;17.20;102520.00;;;;5040821;28;20203;-45
2024/01/31 02:30:41;;;;;;;3.60;3.30;;;16.10;60.30;17.20;102528.00;;;;5043905;28;20187;-44
2024/01/31 02:33:07;;;;;;;3.50;3.30;;;16.20;60.40;17.20;102518.00;;;;5044308;28;20308;-45
2024/01/31 02:35:34;;;;;;;3.93;3.63;;;16.10;60.40;17.20;102516.00;;;;5046054;28;20178;-44
2024/01/31 02:38:02;;;;;;;4.00;3.60;;;16.20;60.50;17.20;102526.00;;;;5044528;28;20202;-44
2024/01/31 02:40:31;;;;;;;3.53;3.23;;;16.10;60.30;17.20;102509.00;;;;5040522;28;20361;-44
2024/01/31 02:42:57;;;;;;;4.03;3.63;;;16.20;60.50;17.20;102528.00;;;;5043811;28;20206;-44
2024/01/31 02:45:23;;;;;;;3.93;3.63;;;16.10;60.50;17.20;102535.00;;;;5045883;28;20170;-44
2024/01/31 02:47:49;;;;;;;3.77;3.47;;;16.10;60.40;17.20;102531.00;;;;5044274;28;20209;-44
2024/01/31 02:50:15;;;;;;;3.63;3.33;;;16.10;60.50;17.20;102536.00;;;;5045978;28;20559;-44
2024/01/31 02:52:41;;;;;;;3.77;3.47;;;16.10;60.40;17.20;102528.00;;;;5045079;28;20672;-44
2024/01/31 02:55:07;;;;;;;3.60;3.30;;;16.10;60.50;17.20;102538.00;;;;5045267;28;20247;-43
2024/01/31 02:57:34;;;;;;;3.70;3.40;;;16.10;60.50;17.20;102526.00;;;;5044787;28;20194;-44
2024/01/31 03:00:01;;;;;;;3.93;3.63;;;16.10;60.60;17.20;102522.00;;;;5044832;28;20173;-44
2024/01/31 03:02:26;;;;;;;3.80;3.50;;;16.10;60.70;17.20;102520.00;;;;5046175;28;20185;-44
2024/01/31 03:04:52;;;;;;;3.70;3.40;;;16.00;60.60;17.20;102520.00;;;;5044181;28;20226;-44
2024/01/31 03:07:18;;;;;;;3.50;3.20;;;16.00;60.60;17.10;102523.00;;;;5045896;28;20207;-44
2024/01/31 03:09:45;;;;;;;3.77;3.47;;;16.00;60.70;17.10;102519.00;;;;5041443;28;20196;-43
2024/01/31 03:12:10;;;;;;;3.50;3.20;;;16.00;60.70;17.10;102520.00;;;;5042496;28;20182;-44
2024/01/31 03:14:36;;;;;;;3.73;3.43;;;16.00;60.70;17.10;102525.00;;;;5045264;28;20208;-44
2024/01/31 03:17:02;;;;;;;3.70;3.40;;;16.00;60.70;17.10;102520.00;;;;5043264;28;20187;-44
2024/01/31 03:19:29;;;;;;;3.60;3.30;;;16.00;60.70;17.10;102536.00;;;;5042061;28;20180;-46
2024/01/31 03:21:55;;;;;;;3.53;3.23;;;16.00;60.70;17.10;102528.00;;;;5052744;28;20206;-46
2024/01/31 03:24:21;;;;;;;3.27;3.07;;;16.00;60.70;17.10;102534.00;;;;5039948;28;20176;-45
2024/01/31 03:26:47;;;;;;;3.30;3.00;;;16.00;60.70;17.10;102525.00;;;;5032621;28;20560;-45
2024/01/31 03:29:13;;;;;;;3.37;3.07;;;16.00;60.70;17.00;102534.00;;;;5040812;28;20204;-45
2024/01/31 03:31:39;;;;;;;3.40;3.10;;;16.00;60.80;17.00;102530.00;;;;5045590;28;20206;-44
2024/01/31 03:34:04;;;;;;;3.40;3.10;;;16.00;61.10;17.00;102523.00;;;;5050605;28;20214;-44
2024/01/31 03:36:31;;;;;;;4.30;3.40;;;16.00;61.20;17.00;102520.00;;;;5048361;28;20301;-44
2024/01/31 03:38:58;;;;;;;3.10;2.90;;;16.00;61.20;17.00;102520.00;;;;5044129;28;20205;-44
2024/01/31 03:41:25;;;;;;;3.30;3.00;;;16.00;61.20;17.00;102528.00;;;;5044807;28;20183;-44
2024/01/31 03:43:50;;;;;;;3.23;2.97;;;15.90;61.20;17.00;102533.00;;;;5043860;28;20551;-44
2024/01/31 03:46:16;;;;;;;3.63;3.33;;;16.00;61.30;17.00;102538.00;;;;5045254;28;20276;-44
2024/01/31 03:48:42;;;;;;;3.43;3.03;;;16.00;61.20;17.00;102544.00;;;;5026454;28;20267;-44
2024/01/31 03:51:21;;;;;;;3.33;3.03;;;15.90;61.20;17.00;102539.00;;;;5045047;28;20973;-45
2024/01/31 03:53:47;;;;;;;3.60;3.30;;;15.90;61.20;17.00;102550.00;;;;5026498;28;20203;-44
2024/01/31 03:56:13;;;;;;;3.60;3.30;;;15.90;61.20;17.00;102540.00;;;;5045344;28;20232;-44
2024/01/31 03:58:40;;;;;;;3.63;3.30;;;15.90;61.20;16.90;102534.00;;;;5044913;28;20199;-44
2024/01/31 04:01:06;;;;;;;3.50;3.20;;;15.90;61.50;17.00;102537.00;;;;5025242;28;20250;-44
2024/01/31 04:03:32;;;;;;;3.53;3.23;;;15.90;61.20;17.00;102535.00;;;;5017623;28;20651;-44
2024/01/31 04:05:58;;;;;;;3.50;3.20;;;15.90;61.10;16.90;102539.00;;;;5004253;28;20194;-45
2024/01/31 04:08:24;;;;;;;3.80;3.23;;;15.90;61.20;17.00;102534.00;;;;5028303;28;20207;-44
2024/01/31 04:10:52;;;;;;;3.70;3.40;;;15.90;61.20;17.00;102542.00;;;;5027143;28;20692;-45
2024/01/31 04:13:18;;;;;;;3.70;3.40;;;15.90;61.20;17.00;102521.00;;;;5023837;28;20208;-45
2024/01/31 04:15:45;;;;;;;3.70;3.40;;;15.90;61.10;16.90;102535.00;;;;5026424;28;20209;-45
2024/01/31 04:18:11;;;;;;;3.80;3.40;;;15.90;61.10;16.90;102534.00;;;;5012942;28;20198;-45
2024/01/31 04:20:40;;;;;;;3.70;3.40;;;15.80;61.00;16.90;102530.00;;;;5045698;28;20183;-44
2024/01/31 04:23:06;;;;;;;3.70;3.40;;;15.80;60.90;16.90;102523.00;;;;5044661;28;20229;-44
2024/01/31 04:25:32;;;;;;;3.63;3.33;;;15.90;61.00;16.90;102509.00;;;;5045475;28;20183;-44
2024/01/31 04:27:58;;;;;;;7.10;3.83;;;15.80;60.90;16.90;102508.00;;;;5039824;28;20213;-45
2024/01/31 04:30:24;;;;;;;4.53;3.77;;;15.80;61.30;16.90;102508.00;;;;5045040;28;20178;-44
2024/01/31 04:32:49;;;;;;;4.20;3.30;;;15.80;61.80;16.80;102496.00;;;;5035333;28;20182;-44
2024/01/31 04:35:15;;;;;;;3.70;3.40;;;15.80;61.40;16.80;102493.00;;;;5036947;28;20174;-44
2024/01/31 04:37:41;;;;;;;4.57;3.00;;;15.80;61.10;16.90;102497.00;;;;5048454;28;20186;-44
2024/01/31 04:40:08;;;;;;;3.57;3.27;;;15.80;61.10;16.90;102484.00;;;;5048875;28;20170;-45
2024/01/31 04:42:34;;;;;;;3.53;3.10;;;15.80;61.50;16.90;102484.00;;;;5047532;28;20185;-45
2024/01/31 04:45:00;;;;;;;5.17;3.37;;;15.80;61.60;16.80;102480.00;;;;5047382;28;20874;-44
2024/01/31 04:47:26;;;;;;;3.10;2.80;;;15.80;61.60;16.80;102490.00;;;;5049456;28;20194;-45
2024/01/31 04:50:01;;;;;;;3.37;3.00;;;15.80;61.70;16.80;102495.00;;;;5048132;28;20184;-46
2024/01/31 04:52:26;;;;;;;4.13;3.10;;;15.80;61.50;16.80;102496.00;;;;5047614;28;20178;-44
2024/01/31 04:54:52;;;;;;;3.00;2.80;;;15.80;61.50;16.80;102492.00;;;;5047437;28;20217;-44
2024/01/31 04:57:18;;;;;;;3.90;3.13;;;15.80;61.40;16.80;102489.00;;;;5032344;28;20198;-44
2024/01/31 04:59:44;;;;;;;3.13;2.80;;;15.80;61.40;16.80;102487.00;;;;5040174;28;20251;-45
2024/01/31 05:02:10;;;;;;;2.97;2.67;;;15.70;61.50;16.80;102496.00;;;;5048434;28;20173;-45
2024/01/31 05:04:36;;;;;;;2.90;2.70;;;15.80;61.60;16.80;102492.00;;;;5048929;28;20183;-45
2024/01/31 05:07:01;;;;;;;4.03;3.00;;;15.80;61.50;16.80;102496.00;;;;5047251;28;20177;-45
2024/01/31 05:09:27;;;;;;;2.80;2.60;;;15.80;61.70;16.80;102494.00;;;;5048294;28;20175;-45
2024/01/31 05:11:53;;;;;;;3.67;2.70;;;15.80;61.70;16.80;102496.00;;;;5047083;28;20178;-45
2024/01/31 05:14:18;;;;;;;3.80;2.60;;;15.70;61.50;16.80;102501.00;;;;5057336;28;20566;-49
2024/01/31 05:16:44;;;;;;;3.27;2.80;;;15.70;61.40;16.80;102501.00;;;;5050583;28;20661;-45
2024/01/31 05:19:12;;;;;;;3.00;2.50;;;15.70;61.50;16.80;102507.00;;;;5048249;28;20186;-45
2024/01/31 05:21:48;;;;;;;4.47;2.70;;;15.70;61.40;16.80;102501.00;;;;5042148;28;20788;-45
2024/01/31 05:24:17;;;;;;;6.20;3.07;;;15.70;61.50;16.70;102504.00;;;;5036753;28;20198;-45
2024/01/31 05:26:43;;;;;;;3.33;2.60;;;15.70;61.50;16.70;102519.00;;;;5046311;28;20183;-46
2024/01/31 05:29:09;;;;;;;4.30;2.70;;;15.70;61.50;16.70;102513.00;;;;5056507;28;20190;-45
2024/01/31 05:31:35;;;;;;;3.73;2.43;;;15.70;61.70;16.70;102509.00;;;;5048907;28;20178;-46
2024/01/31 05:34:01;;;;;;;2.93;2.63;;;15.70;61.60;16.70;102511.00;;;;5045293;28;20202;-45
2024/01/31 05:36:27;;;;;;;5.23;2.80;;;15.70;61.50;16.70;102504.00;;;;5039567;28;20188;-45
2024/01/31 05:38:52;;;;;;;3.03;2.50;;;15.70;61.70;16.70;102501.00;;;;5044262;28;20190;-45
2024/01/31 05:41:18;;;;;;;4.97;2.90;;;15.70;61.60;16.70;102504.00;;;;5047990;28;20186;-45
2024/01/31 05:43:47;;;;;;;7.30;2.97;;;15.70;61.60;16.70;102504.00;;;;5046477;28;20175;-44
2024/01/31 05:46:15;;;;;;;4.10;2.90;;;15.70;61.50;16.70;102503.00;;;;5037995;28;20179;-45
2024/01/31 05:48:42;;;;;;;3.23;2.93;;;15.70;61.40;16.70;102503.00;;;;5053636;28;20201;-45
2024/01/31 05:51:08;;;;;;;4.70;3.13;;;15.70;61.40;16.70;102509.00;;;;5051807;28;20174;-45
2024/01/31 05:53:34;;;;;;;4.33;3.10;;;15.60;61.30;16.70;102516.00;;;;5048022;28;20194;-45
2024/01/31 05:55:59;;;;;;;3.33;3.00;;;15.60;61.30;16.70;102509.00;;;;5046504;28;20167;-45
2024/01/31 05:58:25;;;;;;;3.50;3.10;;;15.60;61.30;16.60;102513.00;;;;5046829;28;20683;-45
2024/01/31 06:00:52;;;;;;;4.17;3.40;;;15.60;61.30;16.70;102512.00;;;;5046544;28;20172;-44
2024/01/31 06:03:18;;;;;;;5.60;3.10;;;15.60;61.30;16.60;102517.00;;;;5047714;28;20174;-45
2024/01/31 06:05:44;;;;;;;3.80;3.40;;;15.60;61.30;16.60;102509.00;;;;5045703;28;20213;-45
2024/01/31 06:08:09;;;;;;;5.13;3.00;;;15.60;61.40;16.60;102506.00;;;;5047542;28;20226;-44
2024/01/31 06:10:35;;;;;;;3.43;3.10;;;15.60;61.30;16.60;102515.00;;;;5047651;28;20193;-44
2024/01/31 06:13:01;;;;;;;4.27;3.23;;;15.60;61.30;16.60;102511.00;;;;5046282;28;20195;-45
2024/01/31 06:15:26;;;;;;;4.00;3.60;;;15.60;61.30;16.60;102510.00;;;;5047656;28;20182;-45
2024/01/31 06:17:52;;;;;;;3.87;3.53;;;15.60;61.30;16.60;102523.00;;;;5046325;28;20222;-44
2024/01/31 06:20:19;;;;;;;3.93;3.53;;;15.60;61.30;16.60;102519.00;;;;5046576;28;20185;-46
2024/01/31 06:22:45;;;;;;;3.53;3.20;;;15.60;61.30;16.60;102523.00;;;;5044454;28;20180;-46
2024/01/31 06:25:11;;;;;;;4.23;3.70;;;15.60;61.20;16.60;102529.00;;;;5048514;28;20174;-46
2024/01/31 06:27:36;;;;;;;4.00;3.50;;;15.50;61.20;16.60;102540.00;;;;5048769;28;20759;-46
2024/01/31 06:30:04;;;;;;;4.17;3.77;;;15.50;61.10;16.60;102527.00;;;;5046936;28;20729;-45
2024/01/31 06:32:32;;;;;;;4.63;3.70;;;15.50;61.10;16.60;102526.00;;;;5047474;28;20166;-45
2024/01/31 06:34:59;;;;;;;4.83;3.53;;;15.50;61.10;16.60;102527.00;;;;5046161;28;20199;-44
2024/01/31 06:37:25;;;;;;;3.93;3.50;;;15.50;61.10;16.60;102523.00;;;;5048660;28;20571;-45
2024/01/31 06:39:51;;;;;;;4.27;3.87;;;15.50;61.10;16.60;102520.00;;;;5047239;28;20190;-45
2024/01/31 06:42:17;;;;;;;4.60;4.20;;;15.50;61.10;16.60;102527.00;;;;5046692;28;20193;-46
2024/01/31 06:44:43;;;;;;;4.10;3.70;;;15.50;61.10;16.60;102512.00;;;;5046356;28;20261;-45
2024/01/31 06:47:08;;;;;;;4.43;4.03;;;15.50;61.10;16.50;102516.00;;;;5048034;28;20253;-46
2024/01/31 06:49:34;;;;;;;4.63;4.23;;;15.50;61.30;16.50;102527.00;;;;5047435;28;20660;-45
2024/01/31 06:52:00;;;;;;;5.43;3.90;;;15.50;61.40;16.50;102537.00;;;;5045622;28;20171;-45
2024/01/31 06:54:25;;;;;;;4.67;4.27;;;15.40;61.80;16.30;102529.00;;;;5046352;28;20205;-45
2024/01/31 06:56:51;;;;;;;4.73;4.20;;;15.30;62.00;16.50;102527.00;;;;5045852;28;20177;-45
2024/01/31 06:59:17;;;;;;;4.20;3.80;;;15.30;62.30;16.50;102519.00;;;;5047236;28;20550;-45
2024/01/31 07:01:42;;;;;;;4.67;3.67;;;15.30;62.50;16.50;102521.00;;;;5046207;28;20174;-46
2024/01/31 07:04:08;;;;;;;4.50;3.70;;;15.30;62.80;16.50;102520.00;;;;5046513;28;20258;-45
2024/01/31 07:06:34;;;;;;;4.90;3.70;;;15.50;63.00;16.50;102511.00;;;;5048386;28;20645;-46
2024/01/31 07:09:00;;;;;;;4.20;3.80;;;15.50;62.70;16.50;102527.00;;;;5056088;28;20207;-45
2024/01/31 07:11:25;;;;;;;3.50;3.07;;;15.60;62.60;16.60;102521.00;;;;5041400;28;20189;-46
2024/01/31 07:13:51;;;;;;;5.80;3.40;;;15.80;62.30;16.60;102519.00;;;;5046252;28;20209;-47
2024/01/31 07:16:17;;;;;;;5.77;3.40;;;15.90;62.30;16.70;102526.00;;;;5048782;28;20177;-46
2024/01/31 07:18:43;;;;;;;5.07;3.20;;;16.10;63.50;16.80;102533.00;;;;5040704;28;20578;-46
2024/01/31 07:21:09;;;;;;;5.33;3.10;;;16.10;65.00;16.80;102528.00;;;;5042280;28;20209;-46
2024/01/31 07:23:35;;;;;;;4.80;3.20;;;16.20;66.30;16.90;102527.00;;;;5051226;28;20182;-46
2024/01/31 07:26:01;;;;;;;5.77;3.20;;;16.30;66.30;16.90;102523.00;;;;5046545;28;20179;-46
2024/01/31 07:28:27;;;;;;;7.97;3.30;;;16.30;66.40;17.00;102516.00;;;;5042417;28;20223;-46
2024/01/31 07:30:53;;;;;;;4.37;3.20;;;16.40;66.20;17.10;102515.00;;;;5045215;28;20259;-45
2024/01/31 07:33:19;;;;;;;5.77;3.30;;;16.50;66.10;17.10;102508.00;;;;5045140;28;20199;-45
2024/01/31 07:35:45;;;;;;;9.13;2.93;;;16.60;66.20;17.10;102513.00;;;;5033049;28;20192;-46
2024/01/31 07:38:11;;;;;;;6.57;3.07;;;16.60;65.90;17.20;102508.00;;;;5026784;28;20199;-44
2024/01/31 07:40:38;;;;;;;7.43;3.20;;;16.50;66.40;17.20;102520.00;;;;5026432;28;20191;-46
2024/01/31 07:43:04;;;;;;;6.93;2.90;;;16.60;66.30;17.20;102513.00;;;;5038567;28;20201;-46
2024/01/31 07:45:30;;;;;;;6.87;3.10;;;16.60;66.20;17.30;102499.00;;;;5043722;28;20178;-46
2024/01/31 07:47:59;;;;;;;5.13;3.07;;;16.70;65.80;17.30;102520.00;;;;5042806;28;20195;-45
2024/01/31 07:50:25;;;;;;;11.33;3.20;;;16.90;65.70;17.40;102505.00;;;;5045385;28;20679;-46
2024/01/31 07:52:50;;;;;;;7.00;2.93;;;17.00;65.40;17.50;102516.00;;;;5035040;28;20268;-45
2024/01/31 07:55:17;;;;;;;6.03;3.10;;;17.20;65.50;17.60;102513.00;;;;5043703;28;20180;-45
2024/01/31 07:57:43;;;;;;;10.27;2.80;;;17.30;65.00;17.70;102512.00;;;;5045628;28;20193;-45
2024/01/31 08:00:09;;;;;;;6.97;2.70;;;17.50;64.50;17.80;102517.00;;;;5045585;28;20170;-46
2024/01/31 08:02:35;;;;;;;8.10;3.10;;;17.60;64.10;17.90;102512.00;;;;5045420;28;20180;-47
2024/01/31 08:05:00;;;;;;;7.60;2.90;;;17.70;64.20;18.00;102515.00;;;;5044596;28;20239;-47
2024/01/31 08:07:26;;;;;;;5.60;2.80;;;17.70;64.10;18.00;102512.00;;;;5049238;28;20668;-48
2024/01/31 08:09:52;;;;;;;6.33;2.70;;;17.70;64.20;18.10;102518.00;;;;5047806;28;20175;-48
2024/01/31 08:12:18;;;;;;;4.73;2.73;;;17.80;64.40;18.10;102511.00;;;;5049455;28;20184;-47
2024/01/31 08:14:44;;;;;;;7.30;2.90;;;17.70;64.20;18.20;102521.00;;;;5049297;28;20308;-47
2024/01/31 08:17:10;;;;;;;6.47;2.60;;;17.70;65.00;18.20;102522.00;;;;5048373;28;20173;-47
2024/01/31 08:19:36;;;;;;;5.77;2.77;;;17.80;64.30;18.20;102518.00;;;;5048334;28;20632;-47
2024/01/31 08:22:02;;;;;;;7.60;2.77;;;17.70;64.20;18.20;102525.00;;;;5037852;28;20227;-46
2024/01/31 08:24:28;;;;;;;5.27;3.03;;;17.70;64.20;18.20;102527.00;;;;5048050;28;20202;-47
2024/01/31 08:26:54;;;;;;;4.93;2.73;;;17.70;64.20;18.20;102536.00;;;;5041338;28;20209;-47
2024/01/31 08:29:20;;;;;;;5.03;2.70;;;17.70;64.30;18.20;102543.00;;;;5048420;28;20281;-47
2024/01/31 08:31:46;;;;;;;5.13;2.60;;;17.70;64.40;18.20;102549.00;;;;5040557;28;20178;-47
2024/01/31 08:34:12;;;;;;;3.13;2.60;;;17.60;64.40;18.20;102549.00;;;;5048596;28;20186;-47
2024/01/31 08:36:38;;;;;;;4.77;2.53;;;17.60;64.50;18.20;102551.00;;;;5049924;28;20178;-47
2024/01/31 08:39:04;;;;;;;4.67;2.43;;;17.50;64.50;18.20;102511.00;;;;5048998;28;20212;-47
2024/01/31 08:41:31;;;;;;;3.10;2.50;;;17.50;64.50;18.20;102553.00;;;;5049213;28;20193;-47
2024/01/31 08:43:57;;;;;;;4.47;2.80;;;17.50;64.50;18.20;102547.00;;;;5047810;28;20221;-47
2024/01/31 08:46:25;;;;;;;4.20;2.47;;;17.50;64.60;18.20;102552.00;;;;5050079;28;20205;-48
2024/01/31 08:48:50;;;;;;;3.63;2.37;;;17.50;64.50;18.20;102559.00;;;;5049582;28;20218;-46
2024/01/31 08:51:16;;;;;;;3.70;2.57;;;17.40;64.60;18.20;102541.00;;;;5042987;28;20241;-47
2024/01/31 08:53:42;;;;;;;3.33;2.50;;;17.40;64.50;18.20;102568.00;;;;5048407;28;20276;-47
2024/01/31 08:56:09;;;;;;;3.53;2.40;;;17.40;64.70;18.20;102564.00;;;;5047156;28;20173;-47
2024/01/31 08:58:35;;;;;;;3.03;2.50;;;17.40;64.70;18.10;102571.00;;;;5049142;28;20552;-47
2024/01/31 09:01:01;;;;;;;3.63;2.63;;;17.40;64.60;18.10;102569.00;;;;5046918;28;20174;-49
2024/01/31 09:03:26;;;;;;;4.03;2.37;;;17.30;64.70;18.10;102558.00;;;;5056931;28;20178;-47
2024/01/31 09:05:53;;;;;;;3.73;2.33;;;17.30;64.60;18.10;102585.00;;;;5049330;28;20186;-46
2024/01/31 09:08:20;;;;;;;4.03;2.63;;;17.30;64.70;18.10;102594.00;;;;5050312;28;20221;-46
2024/01/31 09:10:46;;;;;;;3.63;2.33;;;17.30;64.70;18.10;102602.00;;;;5048407;28;20455;-47
2024/01/31 09:13:11;;;;;;;4.53;2.50;;;17.20;64.60;18.10;102574.00;;;;5034550;28;20534;-47
2024/01/31 09:15:37;;;;;;;2.77;2.20;;;17.20;64.60;18.10;102597.00;;;;5049910;28;20240;-48
2024/01/31 09:18:06;;;;;;;5.50;2.77;;;17.20;64.70;18.00;102601.00;;;;5052301;28;20199;-52
2024/01/31 09:20:32;;;;;;;3.70;2.40;;;17.20;64.70;18.00;102592.00;;;;5054571;28;20180;-47
2024/01/31 09:22:57;;;;;;;4.00;2.23;;;17.20;64.60;18.00;102592.00;;;;5045878;28;20574;-47
2024/01/31 09:25:23;;;;;;;2.83;2.30;;;17.10;64.60;18.00;102585.00;;;;5048998;28;20173;-47
2024/01/31 09:27:49;;;;;;;2.53;2.30;;;17.10;64.70;18.00;102592.00;;;;5043266;28;20209;-47
2024/01/31 09:30:15;;;;;;;3.57;2.40;;;17.10;64.60;18.00;102585.00;;;;5039347;28;20178;-48
2024/01/31 09:32:40;;;;;;;2.47;2.13;;;17.10;64.60;17.90;102581.00;;;;5041439;28;20201;-46
2024/01/31 09:35:06;;;;;;;3.10;2.60;;;17.00;64.60;17.90;102581.00;;;;5047848;28;20206;-47
2024/01/31 09:37:32;;;;;;;3.00;2.50;;;17.00;64.60;17.90;102574.00;;;;5048670;28;20201;-47
2024/01/31 09:40:02;;;;;;;3.17;2.60;;;17.00;64.60;17.90;102574.00;;;;5047546;28;20382;-47
2024/01/31 09:42:27;;;;;;;3.27;2.50;;;17.00;64.60;17.90;102504.00;;;;5046667;28;20206;-47
2024/01/31 09:44:56;;;;;;;2.40;2.20;;;17.00;64.60;17.90;102577.00;;;;5046562;28;20189;-46
2024/01/31 09:47:26;;;;;;;2.87;2.40;;;16.90;64.70;17.90;102564.00;;;;5014512;28;21000;-46
2024/01/31 09:49:52;;;;;;;2.90;2.30;;;16.90;65.10;17.80;102574.00;;;;5046405;28;20326;-47
2024/01/31 09:52:18;;;;;;;3.07;2.70;;;16.90;65.00;17.80;102562.00;;;;5047899;28;20709;-47
2024/01/31 09:54:44;;;;;;;3.40;2.60;;;16.90;65.20;17.80;102545.00;;;;5029758;28;20232;-47
2024/01/31 09:57:09;;;;;;;2.57;2.03;;;16.90;65.10;17.80;102550.00;;;;5049832;28;20173;-48
2024/01/31 09:59:35;;;;;;;5.73;2.57;;;16.90;65.20;17.80;102549.00;;;;5030804;28;20202;-47
2024/01/31 10:02:01;;;;;;;4.27;2.30;;;16.90;65.30;17.80;102537.00;;;;5041391;28;20179;-46
2024/01/31 10:04:27;;;;;;;4.43;2.60;;;16.80;65.30;17.80;102537.00;;;;5046850;28;20547;-46
2024/01/31 10:06:53;;;;;;;2.63;2.30;;;16.80;65.60;17.80;102543.00;;;;5046656;28;20197;-47
2024/01/31 10:09:18;;;;;;;3.90;2.30;;;16.80;65.20;17.80;102542.00;;;;5048025;28;20776;-47
2024/01/31 10:11:47;;;;;;;3.20;2.50;;;16.90;65.20;17.80;102543.00;;;;5046998;28;20176;-47
2024/01/31 10:14:13;;;;;;;3.80;2.37;;;16.80;64.90;17.70;102528.00;;;;5033439;28;20195;-47
2024/01/31 10:16:40;;;;;;;4.00;2.60;;;16.80;64.80;17.70;102533.00;;;;5041717;28;20218;-47
2024/01/31 10:19:05;;;;;;;2.50;2.30;;;16.80;64.70;17.70;102526.00;;;;5045081;28;20684;-47
2024/01/31 10:21:32;;;;;;;2.50;2.30;;;16.90;65.30;17.80;102530.00;;;;5047584;28;20259;-48
2024/01/31 10:23:59;;;;;;;3.80;2.50;;;16.90;65.10;17.80;102532.00;;;;5046082;28;20183;-48
2024/01/31 10:26:28;;;;;;;2.93;2.37;;;17.00;64.20;17.80;102521.00;;;;5045194;28;20179;-47
2024/01/31 10:28:55;;;;;;;3.50;2.80;;;17.10;64.00;17.90;102518.00;;;;5044347;28;20203;-48
2024/01/31 10:31:21;;;;;;;2.50;2.23;;;17.20;63.80;17.90;102515.00;;;;5044279;28;20222;-48
2024/01/31 10:33:47;;;;;;;3.00;2.60;;;17.20;63.70;17.90;102518.00;;;;5043252;28;20211;-48
2024/01/31 10:36:13;;;;;;;2.73;2.37;;;17.20;63.70;18.00;102515.00;;;;5046226;28;20190;-48
2024/01/31 10:38:39;;;;;;;2.93;2.40;;;17.30;63.70;18.00;102522.00;;;;5047279;28;20189;-47
2024/01/31 10:41:07;;;;;;;2.90;2.33;;;17.30;63.60;18.00;102514.00;;;;5046532;28;20687;-48
2024/01/31 10:43:34;;;;;;;3.27;2.37;;;17.30;63.80;18.00;102509.00;;;;5046227;28;20251;-46